Time;durP1;ratioP1;P1;durP2;ratioP2;P2;SDS_P1;SDS_P2;PMS_P1;PMS_P2;Temp;Humidity;BMP_temperature;BMP_pressure;BME280_temperature;BME280_humidity;BME280_pressure;Samples;Min_cycle;Max_cycle;Signal;HPM_P1;HPM_P2
2022/04/30 00:00:15;;;;;;;3.55;3.00;;;;;;;14.92;58.55;101811.66;5127394;28;20417;-64
2022/04/30 00:02:42;;;;;;;3.50;2.88;;;;;;;15.13;58.50;101804.94;5127652;28;20398;-64
2022/04/30 00:05:10;;;;;;;3.33;3.03;;;;;;;15.00;58.65;101816.16;5127316;28;20479;-64
2022/04/30 00:08:47;;;;;;;3.38;3.08;;;;;;;14.97;58.50;101811.16;5127213;27;20456;-65
2022/04/30 00:11:14;;;;;;;3.42;3.00;;;;;;;15.03;57.86;101800.63;5127786;28;20803;-64
2022/04/30 00:13:42;;;;;;;3.50;3.07;;;;;;;15.14;57.96;101807.41;5128119;28;20406;-64
2022/04/30 00:16:40;;;;;;;3.28;2.97;;;;;;;14.83;58.44;101807.38;5106634;27;20757;-64
2022/04/30 00:19:07;;;;;;;3.05;2.78;;;;;;;14.99;58.16;101815.31;5107754;28;20408;-64
2022/04/30 00:21:34;;;;;;;4.45;2.90;;;;;;;15.05;58.11;101811.97;5107177;28;20918;-64
2022/04/30 00:24:01;;;;;;;3.30;3.00;;;;;;;14.99;58.49;101812.66;5107218;28;20411;-64
2022/04/30 00:26:29;;;;;;;4.40;3.00;;;;;;;14.94;58.49;101816.84;5107153;28;20404;-65
2022/04/30 00:28:56;;;;;;;3.20;2.90;;;;;;;14.86;58.70;101823.06;5107422;28;20408;-64
2022/04/30 00:32:49;;;;;;;3.38;3.08;;;;;;;14.81;59.14;101817.38;5127321;27;20475;-64
2022/04/30 00:35:16;;;;;;;2.88;2.67;;;;;;;14.84;59.30;101825.06;5127726;28;20406;-64
2022/04/30 00:42:27;;;;;;;2.90;2.58;;;;;;;14.54;59.96;101835.41;5127097;27;20472;-64
2022/04/30 00:44:54;;;;;;;3.88;2.90;;;;;;;14.76;59.21;101836.56;5127737;28;20417;-64
2022/04/30 00:48:33;;;;;;;3.30;2.80;;;;;;;14.39;60.19;101837.13;5127151;27;20406;-63
2022/04/30 00:54:14;;;;;;;3.72;2.70;;;;;;;14.40;59.77;101844.09;5127150;27;20456;-65
2022/04/30 00:56:48;;;;;;;2.65;2.45;;;;;;;14.41;59.73;101848.44;5127852;28;20411;-64
2022/04/30 01:00:41;;;;;;;3.80;2.67;;;;;;;14.35;59.52;101844.63;5127149;27;20452;-64
2022/04/30 01:03:08;;;;;;;2.88;2.60;;;;;;;14.46;59.72;101849.59;5127749;28;20442;-63
2022/04/30 01:05:35;;;;;;;2.90;2.50;;;;;;;14.41;59.62;101843.09;5127717;28;20407;-63
2022/04/30 01:08:02;;;;;;;3.20;2.90;;;;;;;14.40;59.49;101836.09;5128031;28;20407;-63
2022/04/30 01:10:29;;;;;;;3.30;3.00;;;;;;;14.40;59.57;101839.59;5127650;28;20411;-62
2022/04/30 01:12:57;;;;;;;3.30;3.00;;;;;;;14.54;59.41;101836.25;5128008;27;20403;-63
2022/04/30 01:15:25;;;;;;;3.40;3.10;;;;;;;14.39;59.66;101840.59;5127547;28;20417;-63
2022/04/30 01:17:53;;;;;;;4.25;2.97;;;;;;;14.18;60.48;101849.09;5127610;27;20769;-63
2022/04/30 01:20:20;;;;;;;3.80;3.38;;;;;;;14.12;60.60;101844.44;5127412;28;20438;-64
2022/04/30 01:23:00;;;;;;;3.40;3.10;;;;;;;14.28;60.49;101847.09;5127752;28;20410;-64
2022/04/30 01:25:30;;;;;;;4.07;3.42;;;;;;;14.27;60.33;101842.75;5127735;28;20828;-63
2022/04/30 01:27:59;;;;;;;3.35;3.05;;;;;;;14.23;60.40;101846.78;5127590;28;20436;-63
2022/04/30 01:37:26;;;;;;;3.78;3.08;;;;;;;14.69;59.15;101835.59;5127786;28;20929;-64
2022/04/30 01:44:11;;;;;;;3.83;3.00;;;;;;;14.40;59.81;101839.59;5127153;27;20452;-63
2022/04/30 01:46:38;;;;;;;3.30;3.00;;;;;;;14.32;59.57;101859.09;5127789;28;20417;-63
2022/04/30 01:49:05;;;;;;;3.77;3.30;;;;;;;14.25;59.68;101844.75;5128039;27;20838;-63
2022/04/30 01:51:33;;;;;;;3.57;3.20;;;;;;;14.23;59.91;101843.28;5127599;28;20787;-64
2022/04/30 01:54:38;;;;;;;4.30;3.35;;;;;;;14.19;59.83;101840.09;5127228;27;20448;-63
2022/04/30 01:57:05;;;;;;;3.72;3.40;;;;;;;14.22;59.97;101847.75;5127747;28;20413;-63
2022/04/30 01:59:32;;;;;;;3.67;3.30;;;;;;;14.23;59.83;101843.28;5128120;27;20430;-64
2022/04/30 02:02:00;;;;;;;3.70;3.40;;;;;;;14.34;59.61;101842.94;5127951;27;20429;-64
2022/04/30 02:04:28;;;;;;;4.00;3.60;;;;;;;14.39;58.98;101845.13;5127631;28;20418;-64
2022/04/30 02:14:11;;;;;;;3.95;3.55;;;;;;;14.23;58.99;101840.59;5116197;27;2052933;-64
2022/04/30 02:16:40;;;;;;;4.72;3.67;;;;;;;14.19;58.80;101848.09;5169224;27;20403;-63
2022/04/30 02:23:25;;;;;;;5.00;3.50;;;;;;;14.37;58.62;101834.59;5086332;28;20811;-64
2022/04/30 02:25:53;;;;;;;4.47;3.60;;;;;;;14.20;58.80;101843.59;5087182;28;20410;-64
2022/04/30 02:28:19;;;;;;;4.07;3.70;;;;;;;14.27;58.78;101842.75;5086866;28;20446;-64
2022/04/30 02:30:47;;;;;;;4.33;3.80;;;;;;;14.41;58.26;101830.59;5087254;28;20727;-64
2022/04/30 02:33:34;;;;;;;4.30;3.77;;;;;;;14.22;58.40;101837.09;5013721;27;2135806;-64
2022/04/30 02:36:01;;;;;;;4.65;4.10;;;;;;;14.27;58.58;101821.41;5066976;28;20414;-64
2022/04/30 02:38:28;;;;;;;4.40;3.70;;;;;;;14.22;58.43;101821.09;5066973;28;20419;-64
2022/04/30 02:40:55;;;;;;;4.45;3.85;;;;;;;14.08;59.04;101829.75;5066906;28;20495;-65
2022/04/30 02:43:26;;;;;;;4.40;4.00;;;;;;;14.16;58.90;101835.09;5066796;28;20412;-63
2022/04/30 02:45:53;;;;;;;4.28;3.75;;;;;;;14.16;59.10;101835.09;5066521;28;20864;-63
2022/04/30 02:48:20;;;;;;;4.30;3.90;;;;;;;14.06;59.13;101840.59;5066721;28;20415;-63
2022/04/30 02:50:49;;;;;;;5.10;3.95;;;;;;;14.04;59.19;101839.91;5066646;28;20420;-64
2022/04/30 02:53:16;;;;;;;4.60;4.18;;;;;;;13.80;59.60;101842.56;5066285;28;20428;-63
2022/04/30 03:00:29;;;;;;;4.93;4.00;;;;;;;13.69;59.91;101843.69;5127508;28;20415;-63
2022/04/30 03:02:56;;;;;;;4.57;4.10;;;;;;;13.66;60.12;101844.00;5127950;28;20411;-63
2022/04/30 03:07:05;;;;;;;4.80;4.10;;;;;;;13.46;60.67;101848.78;5086205;28;20406;-63
2022/04/30 03:09:32;;;;;;;4.75;4.35;;;;;;;13.58;60.34;101839.50;5087260;28;20406;-63
2022/04/30 03:11:59;;;;;;;4.47;4.07;;;;;;;13.72;60.23;101838.03;5086773;28;20792;-63
2022/04/30 03:14:26;;;;;;;4.47;4.05;;;;;;;13.81;59.64;101839.72;5087081;28;20414;-63
2022/04/30 03:25:32;;;;;;;5.45;4.40;;;;;;;13.75;59.66;101851.84;5127077;27;20981;-64
2022/04/30 03:27:59;;;;;;;4.32;3.92;;;;;;;13.63;60.27;101850.50;5128062;28;20493;-63
2022/04/30 03:32:49;;;;;;;5.05;4.55;;;;;;;13.65;59.94;101856.50;5168202;27;20400;-64
2022/04/30 03:35:16;;;;;;;5.18;4.47;;;;;;;13.69;60.07;101851.69;5148367;27;20401;-63
2022/04/30 03:37:43;;;;;;;5.32;4.25;;;;;;;13.71;59.63;101857.69;5148320;27;20404;-63
2022/04/30 03:40:13;;;;;;;5.07;4.55;;;;;;;13.51;60.25;101847.31;5148300;27;20899;-63
2022/04/30 03:42:40;;;;;;;5.53;4.45;;;;;;;13.68;59.72;101864.16;5148239;27;20462;-63
2022/04/30 03:45:08;;;;;;;4.82;4.43;;;;;;;13.70;59.72;101856.00;5148190;27;20405;-64
2022/04/30 03:47:37;;;;;;;5.05;4.55;;;;;;;13.69;60.29;101862.34;5148097;27;20783;-64
2022/04/30 03:50:07;;;;;;;4.80;4.30;;;;;;;13.59;60.01;101873.13;5148424;27;20484;-63
2022/04/30 03:55:09;;;;;;;4.40;4.00;;;;;;;13.53;60.35;101871.94;5086266;28;20456;-63
2022/04/30 03:57:36;;;;;;;5.00;4.53;;;;;;;13.30;60.79;101861.00;5087251;28;20468;-64
2022/04/30 04:00:04;;;;;;;5.30;4.80;;;;;;;13.38;60.75;101868.25;5087047;28;20482;-64
2022/04/30 04:02:32;;;;;;;6.60;4.75;;;;;;;13.71;59.83;101868.34;5087192;28;20409;-64
2022/04/30 04:04:59;;;;;;;5.10;4.70;;;;;;;13.81;60.11;101862.88;5086795;28;20815;-64
2022/04/30 04:07:27;;;;;;;5.07;4.40;;;;;;;14.08;59.14;101869.75;5087048;28;20417;-64
2022/04/30 04:09:54;;;;;;;5.10;4.60;;;;;;;13.97;58.83;101873.56;5087053;28;20413;-63
2022/04/30 04:12:22;;;;;;;5.03;4.55;;;;;;;14.20;58.19;101865.75;5087065;28;20412;-64
2022/04/30 04:17:40;;;;;;;5.00;4.60;;;;;;;14.05;58.79;101864.75;5086698;28;20536;-63
2022/04/30 04:20:09;;;;;;;7.70;4.88;;;;;;;14.32;57.89;101869.78;5086774;28;20406;-64
2022/04/30 04:22:36;;;;;;;5.38;4.88;;;;;;;14.14;58.08;101871.75;5086459;28;20908;-64
2022/04/30 04:27:53;;;;;;;5.05;4.55;;;;;;;14.63;56.99;101870.97;5086458;28;21021;-64
2022/04/30 04:30:21;;;;;;;5.60;5.10;;;;;;;14.86;55.71;101869.25;5086316;28;20407;-64
2022/04/30 04:32:48;;;;;;;5.65;4.60;;;;;;;14.91;55.96;101879.44;5086065;28;20513;-65
2022/04/30 04:35:15;;;;;;;5.23;4.83;;;;;;;14.82;55.98;101878.63;5086548;28;20489;-64
2022/04/30 04:37:43;;;;;;;7.10;5.05;;;;;;;14.31;57.58;101878.78;5086203;28;20414;-64
2022/04/30 04:40:12;;;;;;;5.80;5.20;;;;;;;14.29;57.45;101882.59;5086131;28;20920;-64
2022/04/30 04:42:40;;;;;;;6.10;5.50;;;;;;;14.12;58.01;101887.09;5086057;28;20410;-63
2022/04/30 04:45:10;;;;;;;6.35;5.60;;;;;;;14.27;57.82;101896.09;5086149;28;20414;-64
2022/04/30 04:51:23;;;;;;;5.65;5.15;;;;;;;14.16;58.11;101909.75;5086282;28;20405;-64
2022/04/30 04:53:50;;;;;;;5.68;5.18;;;;;;;14.25;58.11;101902.63;5087494;28;20420;-64
2022/04/30 04:57:05;;;;;;;5.60;5.10;;;;;;;14.06;58.48;101901.94;5106697;27;20409;-65
2022/04/30 04:59:32;;;;;;;5.72;5.20;;;;;;;14.21;57.72;101903.94;5107282;28;20489;-64
2022/04/30 05:03:15;;;;;;;5.65;5.07;;;;;;;14.17;58.23;101906.13;5086179;28;20398;-64
2022/04/30 05:05:42;;;;;;;6.00;5.40;;;;;;;14.20;58.44;101905.75;5086924;28;20463;-64
2022/04/30 05:08:10;;;;;;;5.85;5.13;;;;;;;14.24;57.89;101907.13;5087178;28;20499;-64
2022/04/30 05:11:23;;;;;;;5.30;4.80;;;;;;;14.17;58.37;101913.25;5086273;28;20460;-63
2022/04/30 05:13:50;;;;;;;5.33;4.83;;;;;;;14.19;58.24;101914.78;5087231;28;20445;-63
2022/04/30 05:16:17;;;;;;;5.82;5.07;;;;;;;14.26;57.51;101905.13;5086847;28;20410;-64
2022/04/30 05:18:44;;;;;;;5.97;5.10;;;;;;;14.25;57.84;101908.78;5087210;28;20507;-64
2022/04/30 05:21:11;;;;;;;5.40;4.90;;;;;;;14.23;57.85;101917.94;5087378;28;20475;-64
2022/04/30 05:23:38;;;;;;;5.55;5.05;;;;;;;14.44;57.17;101918.31;5087054;28;20414;-64
2022/04/30 05:26:05;;;;;;;5.80;5.20;;;;;;;14.50;57.27;101909.63;5087079;28;20468;-63
2022/04/30 05:28:34;;;;;;;5.72;5.03;;;;;;;14.50;57.64;101912.28;5087056;28;20406;-63
2022/04/30 05:32:58;;;;;;;5.63;5.00;;;;;;;14.76;56.25;101913.97;5086090;28;20450;-64
2022/04/30 05:35:25;;;;;;;5.37;4.73;;;;;;;14.80;55.97;101920.66;5087016;28;20410;-64
2022/04/30 05:38:07;;;;;;;5.07;4.53;;;;;;;15.17;55.29;101923.78;5086117;28;20410;-64
2022/04/30 05:40:34;;;;;;;5.00;4.50;;;;;;;15.32;54.69;101911.34;5086919;28;20927;-65
2022/04/30 05:43:01;;;;;;;5.55;4.88;;;;;;;15.50;54.20;101913.81;5087153;28;20899;-65
2022/04/30 05:45:28;;;;;;;5.35;4.88;;;;;;;15.67;54.05;101915.41;5086858;28;20499;-65
2022/04/30 05:47:55;;;;;;;4.95;4.22;;;;;;;16.17;52.74;101915.16;5086808;28;20442;-65
2022/04/30 05:50:22;;;;;;;5.20;4.20;;;;;;;17.47;49.77;101909.63;5086733;28;20476;-64
2022/04/30 05:52:50;;;;;;;5.85;4.20;;;;;;;18.05;47.72;101914.25;5086670;28;20853;-64
2022/04/30 05:56:29;;;;;;;4.60;3.70;;;;;;;20.21;43.14;101909.00;5086298;28;20406;-64
2022/04/30 05:58:56;;;;;;;3.97;3.60;;;;;;;21.06;41.02;101903.81;5086952;28;20405;-64
2022/04/30 06:01:23;;;;;;;3.92;3.40;;;;;;;20.96;40.73;101900.75;5086901;28;20418;-64
2022/04/30 06:03:50;;;;;;;3.97;3.20;;;;;;;21.97;39.02;101899.34;5087136;28;20897;-64
2022/04/30 06:09:50;;;;;;;3.90;3.30;;;;;;;23.45;36.20;101891.59;5085728;28;20405;-62
2022/04/30 06:12:18;;;;;;;3.53;3.20;;;;;;;23.46;35.32;101912.16;5086977;28;20491;-65
2022/04/30 06:14:44;;;;;;;3.05;2.72;;;;;;;23.27;34.73;101905.94;5087208;28;20414;-62
2022/04/30 06:17:11;;;;;;;5.10;3.05;;;;;;;24.61;33.35;101900.34;5087408;28;20438;-62
2022/04/30 06:21:23;;;;;;;3.58;3.08;;;;;;;24.05;33.27;101901.63;5086265;28;20935;-63
2022/04/30 06:23:50;;;;;;;3.20;2.90;;;;;;;24.37;32.50;101907.56;5087270;28;20513;-62
2022/04/30 06:26:17;;;;;;;3.03;2.80;;;;;;;24.27;32.73;101910.03;5086872;28;20437;-63
2022/04/30 06:28:44;;;;;;;3.45;2.80;;;;;;;24.73;31.72;101894.91;5086775;28;20503;-63
2022/04/30 06:31:29;;;;;;;3.27;2.97;;;;;;;25.66;30.73;101886.00;5086773;28;20406;-62
2022/04/30 06:33:56;;;;;;;4.65;3.03;;;;;;;25.51;30.13;101898.22;5087018;28;20579;-63
2022/04/30 06:36:24;;;;;;;3.97;2.92;;;;;;;25.22;30.60;101899.22;5086741;28;20976;-62
2022/04/30 06:38:52;;;;;;;4.00;2.88;;;;;;;24.70;31.43;101897.25;5086685;28;20445;-63
2022/04/30 06:41:21;;;;;;;3.95;3.00;;;;;;;24.67;31.41;101900.44;5086526;28;20426;-62
2022/04/30 06:45:18;;;;;;;3.80;2.70;;;;;;;24.17;32.25;101898.94;5106613;27;20400;-64
2022/04/30 06:47:45;;;;;;;3.33;2.75;;;;;;;24.24;31.65;101894.25;5107535;28;20960;-64
2022/04/30 06:50:13;;;;;;;4.00;2.95;;;;;;;24.27;31.85;101899.19;5107170;28;20452;-64
2022/04/30 06:57:07;;;;;;;3.67;3.00;;;;;;;24.47;31.80;101888.03;5107115;28;20495;-63
2022/04/30 06:58:12;;;;;;;6.35;3.20;;;;;;;22.84;34.29;101893.28;5107099;28;20438;-63
2022/04/30 07:03:29;;;;;;;4.83;3.30;;;;;;;24.71;32.14;101890.78;5107040;28;20431;-63
2022/04/30 07:06:03;;;;;;;3.70;3.08;;;;;;;24.12;32.71;101893.41;5106798;28;20408;-63
2022/04/30 07:08:31;;;;;;;3.60;2.90;;;;;;;22.95;33.85;101910.63;5107069;28;20448;-63
2022/04/30 07:10:58;;;;;;;3.92;2.90;;;;;;;22.27;35.48;101904.13;5107085;28;20405;-64
2022/04/30 07:13:25;;;;;;;4.20;2.88;;;;;;;21.50;36.90;101901.41;5106611;28;20417;-63
2022/04/30 07:15:54;;;;;;;3.40;2.90;;;;;;;21.26;37.40;101909.16;5106842;28;20496;-63
2022/04/30 07:18:21;;;;;;;3.15;2.70;;;;;;;21.26;37.47;101908.34;5106805;28;20466;-63
2022/04/30 07:20:48;;;;;;;2.83;2.40;;;;;;;20.64;38.58;101916.72;5106458;28;20848;-64
2022/04/30 07:23:15;;;;;;;3.90;2.60;;;;;;;20.21;39.92;101917.91;5106337;28;20416;-63
2022/04/30 07:25:42;;;;;;;3.23;2.80;;;;;;;19.86;40.50;101909.13;5106377;28;20842;-63
2022/04/30 07:28:09;;;;;;;3.70;2.70;;;;;;;19.71;40.76;101911.13;5106670;28;20412;-63
2022/04/30 07:33:09;;;;;;;5.38;3.00;;;;;;;19.51;41.67;101906.50;5086294;28;20402;-63
2022/04/30 07:35:36;;;;;;;3.40;2.63;;;;;;;19.44;41.93;101903.75;5087173;28;20836;-63
2022/04/30 07:38:03;;;;;;;5.15;3.05;;;;;;;19.47;41.42;101903.38;5086885;28;20406;-64
2022/04/30 07:40:31;;;;;;;3.25;2.95;;;;;;;19.22;42.02;101902.22;5087231;28;20445;-64
2022/04/30 07:42:58;;;;;;;3.88;2.70;;;;;;;18.87;42.70;101912.94;5087191;28;20868;-64
2022/04/30 07:45:25;;;;;;;3.45;2.80;;;;;;;18.61;42.80;101910.84;5086696;28;20422;-64
2022/04/30 07:47:54;;;;;;;2.92;2.70;;;;;;;18.67;42.84;101910.06;5086723;28;20812;-64
2022/04/30 07:50:25;;;;;;;4.10;2.50;;;;;;;18.66;42.91;101900.38;5086683;28;20472;-64
2022/04/30 07:52:52;;;;;;;4.33;2.73;;;;;;;18.74;42.74;101913.63;5086862;28;20426;-64
2022/04/30 07:55:19;;;;;;;3.00;2.50;;;;;;;18.63;42.42;101901.56;5086855;28;20406;-64
2022/04/30 07:57:46;;;;;;;3.20;2.50;;;;;;;18.92;42.45;101883.63;5086780;28;20430;-64
2022/04/30 08:01:29;;;;;;;3.15;2.58;;;;;;;19.09;42.53;101893.03;5106555;27;20401;-63
2022/04/30 08:03:56;;;;;;;3.92;2.75;;;;;;;19.17;41.40;101885.84;5107484;28;20448;-63
2022/04/30 08:06:23;;;;;;;3.73;2.60;;;;;;;19.28;41.35;101893.34;5107646;28;20437;-64
2022/04/30 08:08:50;;;;;;;3.83;2.42;;;;;;;19.39;41.31;101886.56;5107093;28;20467;-64
2022/04/30 08:11:17;;;;;;;3.47;2.40;;;;;;;18.55;42.05;101899.03;5107361;28;20513;-64
2022/04/30 08:13:44;;;;;;;4.95;2.25;;;;;;;19.04;41.78;101892.78;5107061;28;20412;-64
2022/04/30 08:16:11;;;;;;;2.88;2.25;;;;;;;18.91;42.23;101885.47;5107308;28;20504;-63
2022/04/30 08:18:40;;;;;;;2.78;2.08;;;;;;;18.94;41.89;101889.63;5106904;28;20833;-64
2022/04/30 08:21:08;;;;;;;4.35;2.20;;;;;;;18.95;40.68;101885.09;5107008;28;20428;-64
2022/04/30 08:23:36;;;;;;;2.13;1.90;;;;;;;19.07;40.93;101876.28;5106807;28;20921;-63
2022/04/30 08:26:03;;;;;;;2.90;1.70;;;;;;;18.87;40.08;101894.13;5106791;28;20856;-63
2022/04/30 08:28:31;;;;;;;2.22;1.73;;;;;;;19.11;39.62;101882.09;5107116;28;20440;-64
2022/04/30 08:30:58;;;;;;;3.08;1.83;;;;;;;19.35;39.17;101875.38;5106936;28;20412;-63
2022/04/30 08:33:25;;;;;;;2.70;1.90;;;;;;;19.36;39.76;101877.06;5107019;28;20436;-65
2022/04/30 08:35:56;;;;;;;3.00;1.70;;;;;;;19.19;39.79;101881.09;5106532;28;20417;-64
2022/04/30 08:38:23;;;;;;;3.72;1.70;;;;;;;19.70;38.86;101883.41;5106581;28;20404;-63
2022/04/30 08:40:50;;;;;;;3.42;1.80;;;;;;;19.52;38.90;101875.03;5106714;28;20980;-63
2022/04/30 08:43:17;;;;;;;2.53;1.45;;;;;;;19.67;38.92;101875.72;5106410;28;20504;-64
2022/04/30 08:45:45;;;;;;;2.05;1.60;;;;;;;19.54;39.03;101870.31;5106312;28;20850;-64
2022/04/30 08:48:14;;;;;;;1.90;1.70;;;;;;;19.78;39.06;101869.78;5106368;28;20413;-63
2022/04/30 08:50:42;;;;;;;3.05;1.73;;;;;;;19.80;38.62;101877.66;5106604;28;20490;-64
2022/04/30 08:53:11;;;;;;;2.00;1.77;;;;;;;19.28;39.38;101885.28;5106166;28;20487;-63
2022/04/30 08:55:39;;;;;;;2.40;1.67;;;;;;;19.15;40.28;101880.66;5106365;28;20413;-63
2022/04/30 08:58:06;;;;;;;3.75;1.60;;;;;;;19.52;40.26;101870.50;5106188;28;20408;-64
2022/04/30 09:00:40;;;;;;;3.55;2.08;;;;;;;19.61;40.28;101861.22;5119460;28;20977;-64
2022/04/30 09:03:07;;;;;;;2.95;1.95;;;;;;;19.33;40.41;101864.00;5126529;28;20789;-63
2022/04/30 09:05:37;;;;;;;2.90;1.90;;;;;;;19.76;39.80;101863.78;5126762;28;20494;-64
2022/04/30 09:08:05;;;;;;;2.28;1.85;;;;;;;19.36;39.67;101873.53;5126425;28;20498;-63
2022/04/30 09:10:35;;;;;;;3.22;1.80;;;;;;;19.10;39.76;101857.09;5126218;28;20888;-64
2022/04/30 09:13:10;;;;;;;2.75;1.40;;;;;;;19.32;39.11;101850.75;5112263;28;20449;-63
2022/04/30 09:15:38;;;;;;;2.92;1.80;;;;;;;19.64;39.62;101854.59;5112564;28;20399;-63
2022/04/30 09:18:07;;;;;;;2.53;2.00;;;;;;;19.38;40.45;101858.84;5112573;28;20921;-64
2022/04/30 09:20:42;;;;;;;2.78;1.77;;;;;;;19.30;40.75;101853.63;5112644;28;20420;-64
2022/04/30 09:23:32;;;;;;;2.33;1.90;;;;;;;18.98;41.13;101850.59;5086162;28;20927;-64
2022/04/30 09:26:05;;;;;;;2.58;1.88;;;;;;;19.16;40.50;101833.09;5086823;28;20504;-64
2022/04/30 09:28:33;;;;;;;2.88;1.95;;;;;;;19.21;40.79;101844.09;5086726;28;20496;-63
2022/04/30 09:31:08;;;;;;;3.20;1.90;;;;;;;19.33;39.91;101838.97;5087180;28;20722;-63
2022/04/30 09:33:35;;;;;;;3.05;1.60;;;;;;;19.52;39.79;101829.31;5086781;28;20414;-64
2022/04/30 09:38:49;;;;;;;2.00;1.50;;;;;;;19.45;39.32;101827.44;5086780;28;20485;-63
2022/04/30 09:41:22;;;;;;;3.83;1.60;;;;;;;19.62;38.78;101833.28;5086870;28;20871;-64
2022/04/30 09:44:00;;;;;;;1.58;1.40;;;;;;;19.87;38.29;101827.38;5086849;28;20406;-64
2022/04/30 09:46:28;;;;;;;1.90;1.40;;;;;;;19.89;38.32;101822.59;5086498;28;20513;-63
2022/04/30 09:54:28;;;;;;;2.88;1.48;;;;;;;19.54;39.08;101816.53;5086413;28;20436;-64
2022/04/30 09:56:59;;;;;;;2.30;1.40;;;;;;;19.70;38.76;101810.75;5086227;28;20911;-64
2022/04/30 09:59:27;;;;;;;2.35;1.20;;;;;;;19.80;37.97;101818.47;5086542;28;20410;-64
2022/04/30 10:01:55;;;;;;;1.77;1.25;;;;;;;19.91;37.55;101809.78;5086393;28;20436;-64
2022/04/30 10:04:22;;;;;;;1.70;1.50;;;;;;;19.87;37.69;101813.91;5086174;28;20988;-63
2022/04/30 10:06:51;;;;;;;2.92;1.50;;;;;;;19.74;38.62;101803.16;5086450;28;20445;-63
2022/04/30 10:09:20;;;;;;;2.53;1.60;;;;;;;19.68;39.38;101792.13;5086413;28;20406;-63
2022/04/30 10:12:02;;;;;;;2.23;1.80;;;;;;;19.99;38.92;101795.31;5085984;28;20448;-64
2022/04/30 10:16:26;;;;;;;1.92;1.30;;;;;;;20.21;36.73;101783.28;5086276;28;20402;-65
2022/04/30 10:19:06;;;;;;;2.00;1.30;;;;;;;20.10;37.48;101791.16;5086886;28;20947;-65
2022/04/30 10:21:34;;;;;;;3.03;1.42;;;;;;;19.79;38.55;101789.88;5086855;28;20402;-65
2022/04/30 10:24:02;;;;;;;2.15;1.52;;;;;;;19.66;39.53;101775.38;5086858;28;20414;-65
2022/04/30 10:26:29;;;;;;;2.30;1.33;;;;;;;19.77;38.44;101778.50;5086668;28;20490;-66
2022/04/30 10:29:00;;;;;;;2.60;1.40;;;;;;;19.99;37.31;101766.53;5087004;28;20425;-65
2022/04/30 10:32:38;;;;;;;1.90;1.50;;;;;;;20.34;37.60;101765.47;5106533;27;20991;-65
2022/04/30 10:35:50;;;;;;;3.25;1.55;;;;;;;20.36;38.28;101763.38;5086259;28;20456;-64
2022/04/30 10:38:18;;;;;;;1.52;1.40;;;;;;;20.14;38.65;101774.38;5087485;28;20414;-64
2022/04/30 10:40:47;;;;;;;2.25;1.35;;;;;;;20.12;37.59;101759.50;5086840;28;20852;-62
2022/04/30 10:43:16;;;;;;;3.08;1.58;;;;;;;20.05;38.57;101773.75;5086792;28;20414;-63
2022/04/30 10:45:43;;;;;;;2.22;1.60;;;;;;;19.90;38.81;101767.75;5087065;28;20406;-63
2022/04/30 10:48:10;;;;;;;2.35;1.60;;;;;;;19.59;39.58;101758.41;5086947;28;20438;-63
2022/04/30 10:50:37;;;;;;;1.83;1.40;;;;;;;19.58;39.92;101763.97;5086789;28;20935;-63
2022/04/30 10:54:54;;;;;;;3.53;1.52;;;;;;;19.92;38.77;101757.63;5086307;28;20406;-65
2022/04/30 10:57:21;;;;;;;3.50;1.48;;;;;;;19.76;39.54;101763.41;5087208;28;20497;-65
2022/04/30 10:59:58;;;;;;;2.88;1.70;;;;;;;20.00;38.81;101752.00;5087185;28;20438;-64
2022/04/30 11:02:30;;;;;;;1.48;1.30;;;;;;;20.03;38.44;101761.56;5087110;28;20418;-64
2022/04/30 11:04:58;;;;;;;1.75;1.40;;;;;;;20.22;38.34;101758.03;5086718;28;20912;-65
2022/04/30 11:07:27;;;;;;;2.00;1.50;;;;;;;20.42;38.09;101760.69;5086730;28;20410;-65
2022/04/30 11:09:56;;;;;;;2.10;1.40;;;;;;;20.08;38.80;101756.38;5087016;28;20463;-65
2022/04/30 11:12:30;;;;;;;2.83;1.48;;;;;;;19.93;38.67;101755.75;5087079;28;20440;-65
2022/04/30 11:14:58;;;;;;;2.28;1.50;;;;;;;19.65;39.15;101744.13;5086580;28;20453;-65
2022/04/30 11:17:25;;;;;;;2.70;1.40;;;;;;;19.72;39.36;101746.00;5086598;28;20421;-65
2022/04/30 11:19:55;;;;;;;2.17;1.30;;;;;;;19.89;38.26;101746.44;5086462;28;20410;-65
2022/04/30 11:22:23;;;;;;;3.90;1.50;;;;;;;20.03;38.25;101742.72;5086737;28;20416;-66
2022/04/30 11:24:50;;;;;;;2.05;1.35;;;;;;;19.77;37.86;101739.00;5086393;28;20413;-65
2022/04/30 11:27:18;;;;;;;1.75;1.20;;;;;;;19.94;37.72;101743.97;5086845;28;20438;-65
2022/04/30 11:29:53;;;;;;;1.90;1.20;;;;;;;19.80;38.06;101740.44;5086624;28;20813;-65
2022/04/30 11:32:32;;;;;;;1.65;1.20;;;;;;;19.94;38.34;101739.41;5106714;27;20465;-64
2022/04/30 11:35:23;;;;;;;2.20;1.40;;;;;;;20.31;37.51;101738.94;5086234;28;20455;-65
2022/04/30 11:37:50;;;;;;;3.03;1.48;;;;;;;20.18;37.54;101742.50;5087010;28;20422;-63
2022/04/30 11:40:21;;;;;;;1.33;1.20;;;;;;;20.07;37.54;101735.88;5086879;28;20446;-63
2022/04/30 11:42:55;;;;;;;1.40;1.10;;;;;;;20.16;37.62;101742.69;5086896;28;20445;-63
2022/04/30 11:45:25;;;;;;;2.83;1.27;;;;;;;20.30;37.08;101731.94;5087101;28;20467;-64
2022/04/30 11:47:52;;;;;;;2.13;1.20;;;;;;;20.23;37.03;101724.66;5087030;28;20422;-63
2022/04/30 11:50:19;;;;;;;1.85;1.10;;;;;;;20.18;36.69;101723.66;5087030;28;20430;-63
2022/04/30 11:52:48;;;;;;;2.10;1.20;;;;;;;20.37;36.52;101716.59;5086702;28;20920;-63
2022/04/30 11:55:16;;;;;;;1.25;1.10;;;;;;;20.55;35.52;101714.03;5086523;28;20513;-63
2022/04/30 11:57:44;;;;;;;1.42;1.13;;;;;;;20.38;36.44;101720.91;5086586;28;20453;-63
2022/04/30 12:00:12;;;;;;;1.63;1.20;;;;;;;20.37;36.69;101706.63;5086539;28;20437;-63
2022/04/30 12:02:42;;;;;;;1.90;1.20;;;;;;;20.39;37.08;101719.88;5086731;28;20421;-64
2022/04/30 12:05:20;;;;;;;1.88;1.20;;;;;;;20.12;37.10;101711.03;5106633;27;20400;-65
2022/04/30 12:07:48;;;;;;;2.45;1.40;;;;;;;20.22;37.08;101714.09;5107577;28;20442;-65
2022/04/30 12:10:17;;;;;;;2.93;1.20;;;;;;;20.25;36.70;101700.22;5107584;28;20459;-65
2022/04/30 12:12:45;;;;;;;3.13;1.33;;;;;;;19.98;36.56;101702.97;5107159;28;20466;-65
2022/04/30 12:17:08;;;;;;;1.50;1.30;;;;;;;20.20;36.49;101700.88;5086293;28;20410;-65
2022/04/30 12:25:09;;;;;;;1.90;1.30;;;;;;;20.10;36.48;101688.88;5086875;28;20409;-65
2022/04/30 12:27:37;;;;;;;2.40;1.15;;;;;;;20.13;36.23;101688.44;5086784;28;20440;-65
2022/04/30 12:30:14;;;;;;;2.75;1.20;;;;;;;20.07;36.77;101678.53;5087269;28;20438;-65
2022/04/30 12:32:50;;;;;;;1.55;1.30;;;;;;;20.14;36.87;101688.25;5087128;28;20421;-65
2022/04/30 12:35:25;;;;;;;1.35;1.10;;;;;;;20.22;36.98;101673.72;5086506;28;20466;-65
2022/04/30 12:38:03;;;;;;;1.90;1.10;;;;;;;20.41;36.40;101677.41;5086828;28;20493;-65
2022/04/30 12:40:30;;;;;;;2.47;1.37;;;;;;;20.55;36.14;101680.91;5086872;28;20484;-65
2022/04/30 12:42:57;;;;;;;1.52;1.13;;;;;;;20.68;36.10;101674.66;5086483;28;20852;-65
2022/04/30 12:46:21;;;;;;;2.60;1.30;;;;;;;20.94;35.18;101662.91;5106545;27;20828;-64
2022/04/30 12:48:48;;;;;;;1.50;1.10;;;;;;;20.84;34.69;101673.34;5107216;28;20415;-64
2022/04/30 12:53:22;;;;;;;2.13;1.20;;;;;;;20.62;35.75;101676.34;5086342;28;20460;-63
2022/04/30 12:57:39;;;;;;;1.67;1.30;;;;;;;20.38;36.13;101664.38;5086260;28;20410;-64
2022/04/30 13:00:10;;;;;;;1.60;1.10;;;;;;;20.59;35.48;101649.78;5086934;28;20438;-65
2022/04/30 13:02:39;;;;;;;1.48;1.10;;;;;;;20.66;35.78;101655.19;5087159;28;20410;-65
2022/04/30 13:05:07;;;;;;;2.30;1.00;;;;;;;20.56;35.89;101652.91;5087132;28;20406;-65
2022/04/30 13:07:34;;;;;;;3.03;1.30;;;;;;;20.60;35.71;101646.06;5086784;28;20460;-65
2022/04/30 13:15:31;;;;;;;1.65;1.17;;;;;;;20.33;35.62;101638.09;5086690;28;20772;-65
2022/04/30 13:17:58;;;;;;;1.92;1.30;;;;;;;20.45;35.72;101624.78;5086926;28;20410;-65
2022/04/30 13:20:25;;;;;;;2.10;1.20;;;;;;;20.77;35.78;101624.88;5086601;28;20414;-64
2022/04/30 13:22:54;;;;;;;2.10;1.17;;;;;;;20.77;35.30;101612.22;5086489;28;20933;-65
2022/04/30 13:25:21;;;;;;;2.40;1.30;;;;;;;20.43;34.63;101630.38;5086479;28;20424;-64
2022/04/30 13:27:50;;;;;;;2.67;1.15;;;;;;;20.27;35.10;101628.16;5086419;28;20454;-65
2022/04/30 13:30:18;;;;;;;9.07;1.87;;;;;;;20.39;35.62;101622.94;5086646;28;20467;-66